createdAt,value
2022-11-24T00:08:20.143Z,1.20
2022-11-24T00:18:45.049Z,1.20
2022-11-24T00:29:09.080Z,1.30
2022-11-24T00:39:32.219Z,1.30
2022-11-24T00:49:54.035Z,1.40
2022-11-24T01:00:18.698Z,1.30
2022-11-24T01:10:40.440Z,1.30
2022-11-24T01:21:09.981Z,1.50
2022-11-24T01:31:33.226Z,1.70
2022-11-24T01:41:56.578Z,1.40
2022-11-24T01:52:22.967Z,1.30
2022-11-24T02:02:47.047Z,1.50
2022-11-24T02:13:09.206Z,1.70
2022-11-24T02:23:41.876Z,1.70
2022-11-24T02:34:05.209Z,1.60
2022-11-24T02:44:35.956Z,1.60
2022-11-24T02:54:59.214Z,1.40
2022-11-24T03:05:21.367Z,1.40
2022-11-24T03:15:44.585Z,1.30
2022-11-24T03:26:10.282Z,1.40
2022-11-24T03:36:33.369Z,1.30
2022-11-24T03:46:55.473Z,1.50
2022-11-24T03:57:19.184Z,1.50
2022-11-24T04:07:41.775Z,1.50
2022-11-24T04:18:05.072Z,1.40
2022-11-24T04:28:27.285Z,1.30
2022-11-24T04:39:22.973Z,1.30
2022-11-24T04:49:36.444Z,1.20
2022-11-24T04:59:59.782Z,1.40
2022-11-24T05:10:36.882Z,1.10
2022-11-24T05:21:00.552Z,1.00
2022-11-24T05:31:22.145Z,0.90
2022-11-24T05:41:45.259Z,1.00
2022-11-24T05:52:07.013Z,0.80
2022-11-24T06:02:32.853Z,0.90
2022-11-24T06:12:54.675Z,0.80
2022-11-24T06:23:17.508Z,0.80
2022-11-24T06:33:40.166Z,0.60
2022-11-24T06:44:10.913Z,0.80
2022-11-24T06:54:32.935Z,0.80
2022-11-24T07:04:56.483Z,0.90
2022-11-24T07:15:20.669Z,1.00
2022-11-24T07:25:43.603Z,1.00
2022-11-24T07:36:07.124Z,0.90
2022-11-24T07:46:32.911Z,1.20
2022-11-24T07:56:55.065Z,1.30
2022-11-24T08:07:18.553Z,1.60
2022-11-24T08:17:43.741Z,1.60
2022-11-24T08:28:06.969Z,1.60
2022-11-24T08:38:28.769Z,1.80
2022-11-24T08:49:05.121Z,1.90
2022-11-24T08:59:26.918Z,1.90
2022-11-24T09:09:52.862Z,1.70
2022-11-24T09:20:14.852Z,2.10
2022-11-24T09:30:37.971Z,2.50
2022-11-24T09:41:21.834Z,2.80
2022-11-24T09:51:48.193Z,2.80
2022-11-24T10:02:13.345Z,3.20
2022-11-24T10:12:51.028Z,3.50
2022-11-24T10:23:29.938Z,4.20
2022-11-24T10:33:52.883Z,4.50
2022-11-24T10:44:15.599Z,5.00
2022-11-24T10:54:57.272Z,5.30
2022-11-24T11:05:42.123Z,5.20
2022-11-24T11:16:23.975Z,5.50
2022-11-24T11:26:45.668Z,5.50
2022-11-24T11:37:16.098Z,5.90
2022-11-24T11:47:44.061Z,6.10
2022-11-24T11:58:24.554Z,5.60
2022-11-24T12:09:19.238Z,5.80
2022-11-24T12:19:56.837Z,6.40
2022-11-24T12:30:19.677Z,6.20
2022-11-24T12:41:18.306Z,6.50
2022-11-24T12:51:43.946Z,6.40
2022-11-24T13:02:19.884Z,6.60
2022-11-24T13:12:55.018Z,6.70
2022-11-24T13:23:27.858Z,6.40
2022-11-24T13:33:49.070Z,6.30
2022-11-24T13:44:26.060Z,6.20
2022-11-24T13:54:50.844Z,5.80
2022-11-24T14:05:17.237Z,6.00
2022-11-24T14:15:39.237Z,5.90
2022-11-24T14:26:02.183Z,5.70
2022-11-24T14:36:24.017Z,5.30
2022-11-24T14:46:47.766Z,5.10
2022-11-24T14:57:24.650Z,4.80
2022-11-24T15:07:49.992Z,4.80
2022-11-24T15:18:26.414Z,4.80
2022-11-24T15:28:49.417Z,4.80
2022-11-24T15:39:11.068Z,4.50
2022-11-24T15:49:34.304Z,4.40
2022-11-24T15:59:56.097Z,4.50
2022-11-24T16:10:25.853Z,4.70
2022-11-24T16:20:47.430Z,4.90
2022-11-24T16:31:10.454Z,4.60
2022-11-24T16:41:32.267Z,4.70
2022-11-24T16:51:56.957Z,4.60
2022-11-24T17:02:18.973Z,4.40
2022-11-24T17:12:41.807Z,4.20
2022-11-24T17:23:03.630Z,4.00
2022-11-24T17:33:26.635Z,3.80
2022-11-24T17:43:50.240Z,3.70
2022-11-24T18:04:55.270Z,3.90
2022-11-24T18:15:18.506Z,4.20
2022-11-24T18:25:40.347Z,4.20
2022-11-24T18:36:09.078Z,4.30
2022-11-24T18:46:30.987Z,4.20
2022-11-24T18:56:57.781Z,4.10
2022-11-24T19:07:23.687Z,4.30
2022-11-24T19:17:48.964Z,4.30
2022-11-24T19:28:12.605Z,4.40
2022-11-24T19:38:37.387Z,3.90
2022-11-24T19:49:01.549Z,3.60
2022-11-24T19:59:26.381Z,3.40
2022-11-24T20:09:47.959Z,3.30
2022-11-24T20:20:11.604Z,3.40
2022-11-24T20:30:34.026Z,3.20
2022-11-24T20:41:07.400Z,3.10
2022-11-24T20:51:33.108Z,2.90
2022-11-24T21:01:57.042Z,2.70
2022-11-24T21:12:18.880Z,2.30
2022-11-24T21:22:41.736Z,2.10
2022-11-24T21:33:03.706Z,2.00
2022-11-24T21:43:28.664Z,2.00
2022-11-24T21:53:50.435Z,2.20
2022-11-24T22:04:13.504Z,2.40
2022-11-24T22:14:40.242Z,2.60
2022-11-24T22:25:03.587Z,2.80
2022-11-24T22:35:25.472Z,2.80
2022-11-24T22:45:49.022Z,2.80
2022-11-24T22:56:12.625Z,2.90
2022-11-24T23:06:35.792Z,3.00
2022-11-24T23:16:57.447Z,3.20
2022-11-24T23:27:20.838Z,3.20
2022-11-24T23:38:06.576Z,3.50
2022-11-24T23:48:25.576Z,3.40
2022-11-24T23:58:47.209Z,3.80
